Terminal Aerodrome Forecast
Issued by NWS

Current Version | Previous Version | Text Only | Print | Product List | Glossary On
Versions: 1 2 3 4 5 6 7 8 9 10 11 12 13 14 15 16 17 18 19 20 21 22 23 24 25 26 27 28 29 30 31 32 33 34 35 36 37 38 39 40 41 42 43 44 45
000
FTUS43 KDMX 291138
TAFMCW
TAF
KMCW 291138Z 2912/3012 34024G32KT P6SM -DZ OVC008
     FM291400 33025G33KT P6SM OVC012
     FM300000 33018KT P6SM BKN015
     FM300600 35008KT P6SM SCT015=

USA.gov is the U.S. government's official web portal to all federal, state and local government web resources and services.